Lisbon, IA (52253)

10:46 AM CDT on May 03, 2015 (GMT -0500)
KIALISBO2 | | Change Station
CLOSE
Current Station
Personal Weather Station
Location: Lisbon, IA
Elevation: 856 ft
Nearby Weather Stations

Elev 856 ft 41.92 °N, 91.39 °W | Updated 5 minutes ago

Overcast
Overcast
59.5 °F
Feels Like 59.5 °F
N
2.7
Wind Variable Wind from SSE

Today
High -- | Low -- °F
--% Chance of Precip.
Yesterday
High -- | Low -- °F
Precip. -- in
5:59 AM 8:06 PM
Full, 100% visible
Pressure 29.87 in
Visibility 5.0 miles
Clouds Overcast 7500 ft
Dew Point 50 °F
Humidity 71%
Rainfall 0.07 in
Snow Depth Not available.
UV 2 out of 12
Pollen 10.30 out of 12
Air Quality Not available.
Flu Activity Local Activity
METAR KCID 031452Z 18006KT 5SM TSRA OVC075 15/12 A2987 RMK AO2 RAB48 TSB48 SLP114 6//// T01500122 53003 PNO $

More Conditions Fewer Conditions

Pressure 29.87 in
Visibility 5.0 miles
Clouds Overcast 7500 ft
Dew Point 50 °F
Humidity 71%
Rainfall 0.07 in
Snow Depth Not available.
UV 2 out of 12
Pollen 10.30 out of 12
Air Quality Not available.
Flu Activity Local Activity
METAR KCID 031452Z 18006KT 5SM TSRA OVC075 15/12 A2987 RMK AO2 RAB48 TSB48 SLP114 6//// T01500122 53003 PNO $

More Conditions Fewer Conditions

Nepal has a long way to go to dig out and rebuild from a devastating earthquake. We have teamed up with several charities and organizations to make contributing to the relief effort as easy as possible.
How you can help: Portlight Strategies | Red Cross

10-Day Weather Forecast

Almanac

Astronomy

May. 03, 2015 Rise Set
Actual Time
Civil Twilight
Nautical Twilight
Astronomical Twilight
Moon
Length of Visible Light
Length of Day
Tomorrow will be .
, % of the Moon is Illuminated

Today's Extremes

State Highs State Lows

Community

WunderPhotos

Upload Photos

1,818,256 photos uploaded!

WunderBlogs® & News

Nearby

Air Quality

  Air Quality AQ Index Pollutant
Not available.

Snow Depth

Station Depth Elevation

Earthquake Activity

City Distance Mag. Time & Date
Minimum magnitude displayed is 2.5.

Coastal Water Temperatures

Place Temperature

Stations

Nearby Weather Stations

Station Location Temp. Windchill Dew Point Humidity Wind Precip. Elev Updated Type